Terminal Aerodrome Forecast
Issued by NWS

Home | Current Version | Previous Version | Text Only | Print | Product List | Glossary On
Versions: 1 2 3 4 5 6 7 8 9 10 11 12 13 14 15 16 17 18 19 20 21 22 23 24 25 26 27 28 29 30 31 32 33 34 35 36 37 38 39 40 41 42
000
FTUS45 KBOU 152339
TAFBJC
TAF
KBJC 152339Z 1600/1624 27015G24KT P6SM FEW120 SCT200
     FM160200 25008G15KT P6SM SCT120 BKN200
     FM160600 20009KT P6SM SCT120 BKN200
     FM161500 18005KT P6SM SCT120 BKN180
     FM161600 04010KT P6SM BKN090 BKN150
     FM162200 07008KT P6SM SCT060 BKN090
      TEMPO 1622/1624 BKN060=

USA.gov is the U.S. government's official web portal to all federal, state and local government web resources and services.